Time;durP1;ratioP1;P1;durP2;ratioP2;P2;SDS_P1;SDS_P2;PMS_P1;PMS_P2;Temp;Humidity;BMP_temperature;BMP_pressure;BME280_temperature;BME280_humidity;BME280_pressure;Samples;Min_cycle;Max_cycle;Signal;HPM_P1;HPM_P2
2021/11/13 00:00:39;;;;;;;34.23;21.20;;;;;;;1.96;100.00;96634.41;5113827;28;20392;-67
2021/11/13 00:03:05;;;;;;;48.40;21.67;;;;;;;1.98;100.00;96622.13;5100795;28;20381;-67
2021/11/13 00:05:31;;;;;;;44.23;21.00;;;;;;;2.07;100.00;96626.22;5094083;28;20422;-67
2021/11/13 00:07:57;;;;;;;40.27;22.10;;;;;;;2.09;100.00;96616.50;5094025;28;20385;-67
2021/11/13 00:10:26;;;;;;;33.07;22.00;;;;;;;2.08;100.00;96620.06;5094058;28;20394;-67
2021/11/13 00:12:57;;;;;;;38.97;20.97;;;;;;;2.01;100.00;96613.19;5093767;28;20576;-67
2021/11/13 00:15:24;;;;;;;29.73;20.83;;;;;;;1.99;100.00;96615.16;5114005;28;20970;-67
2021/11/13 00:17:50;;;;;;;34.90;20.98;;;;;;;1.97;100.00;96617.13;5113814;28;20388;-67
2021/11/13 00:20:18;;;;;;;41.40;20.88;;;;;;;2.17;100.00;96604.50;5113960;28;20415;-67
2021/11/13 00:22:44;;;;;;;38.25;20.58;;;;;;;2.29;100.00;96618.53;5113506;28;20411;-67
2021/11/13 00:25:10;;;;;;;43.45;22.50;;;;;;;2.27;100.00;96620.53;5112876;28;20376;-67
2021/11/13 00:27:35;;;;;;;41.67;21.67;;;;;;;2.13;100.00;96622.13;5107238;28;20900;-67
2021/11/13 00:30:01;;;;;;;42.55;20.67;;;;;;;2.15;100.00;96632.28;5093653;28;20736;-68
2021/11/13 00:32:27;;;;;;;75.05;18.90;;;;;;;1.94;100.00;96649.31;5092653;28;20471;-67
2021/11/13 00:34:52;;;;;;;61.08;19.55;;;;;;;1.64;100.00;96652.78;5093628;28;20399;-67
2021/11/13 00:37:18;;;;;;;54.00;19.20;;;;;;;1.49;100.00;96657.09;5094923;28;20469;-67
2021/11/13 00:39:43;;;;;;;43.60;18.93;;;;;;;1.38;100.00;96649.75;5106613;28;20382;-67
2021/11/13 00:42:09;;;;;;;53.17;18.50;;;;;;;1.36;100.00;96655.09;5093945;28;20421;-67
2021/11/13 00:44:34;;;;;;;32.42;19.50;;;;;;;1.65;100.00;96657.78;5093204;28;20404;-67
2021/11/13 00:47:01;;;;;;;35.13;18.17;;;;;;;1.70;100.00;96669.38;5091637;28;20394;-67
2021/11/13 00:49:27;;;;;;;40.88;19.20;;;;;;;2.02;100.00;96651.78;5094927;28;20457;-67
2021/11/13 00:51:53;;;;;;;32.95;18.23;;;;;;;1.98;100.00;96652.31;5107126;28;20907;-67
2021/11/13 00:54:18;;;;;;;36.90;18.42;;;;;;;1.88;100.00;96650.00;5102567;28;20417;-67
2021/11/13 00:56:44;;;;;;;35.30;17.97;;;;;;;1.84;100.00;96653.88;5092950;28;20413;-67
2021/11/13 00:59:09;;;;;;;35.77;18.23;;;;;;;1.88;100.00;96649.19;5093936;28;20730;-68
2021/11/13 01:01:35;;;;;;;36.77;19.50;;;;;;;2.04;100.00;96652.44;5093287;28;20997;-67
2021/11/13 01:04:01;;;;;;;31.48;17.67;;;;;;;1.82;100.00;96650.69;5093361;28;20804;-67
2021/11/13 01:06:26;;;;;;;29.43;18.50;;;;;;;1.95;100.00;96642.34;5111038;28;20593;-67
2021/11/13 01:08:52;;;;;;;28.40;19.07;;;;;;;1.86;100.00;96638.22;5107713;28;20439;-67
2021/11/13 01:11:18;;;;;;;27.23;18.10;;;;;;;1.89;100.00;96624.97;5093038;28;20735;-67
2021/11/13 01:13:44;;;;;;;24.98;18.20;;;;;;;1.81;100.00;96627.63;5092785;28;20382;-67
2021/11/13 01:16:10;;;;;;;30.15;19.77;;;;;;;1.88;100.00;96626.75;5093502;28;20898;-67
2021/11/13 01:18:38;;;;;;;34.70;19.57;;;;;;;1.98;100.00;96622.13;5108647;28;20443;-67
2021/11/13 01:21:03;;;;;;;30.10;19.13;;;;;;;1.86;100.00;96628.69;5107649;28;20388;-67
2021/11/13 01:23:29;;;;;;;28.07;18.73;;;;;;;1.55;100.00;96644.31;5112047;28;20876;-67
2021/11/13 01:25:54;;;;;;;25.57;19.60;;;;;;;1.65;100.00;96654.41;5110515;28;20415;-68
2021/11/13 01:28:20;;;;;;;27.67;18.77;;;;;;;1.62;100.00;96654.72;5112013;28;20396;-68
2021/11/13 01:30:45;;;;;;;25.67;18.43;;;;;;;1.80;100.00;96657.00;5112157;28;20473;-68
2021/11/13 01:33:10;;;;;;;24.08;18.38;;;;;;;1.59;100.00;96652.50;5099198;28;20474;-68
2021/11/13 01:35:36;;;;;;;28.27;17.97;;;;;;;1.65;100.00;96662.94;5111809;28;20409;-67
2021/11/13 01:38:01;;;;;;;44.33;18.00;;;;;;;1.56;100.00;96658.03;5082627;28;20937;-67
2021/11/13 01:40:27;;;;;;;86.60;19.17;;;;;;;1.12;100.00;96668.94;5091120;28;20397;-67
2021/11/13 01:42:58;;;;;;;47.65;18.48;;;;;;;1.09;100.00;96671.06;5093128;28;20418;-67
2021/11/13 01:45:24;;;;;;;128.43;20.95;;;;;;;1.01;100.00;96679.66;5092247;28;20422;-67
2021/11/13 01:47:49;;;;;;;125.07;22.05;;;;;;;1.04;100.00;96686.28;5109423;28;20395;-67
2021/11/13 01:50:19;;;;;;;97.20;24.10;;;;;;;0.99;100.00;96686.78;5107312;28;20395;-67
2021/11/13 01:52:45;;;;;;;174.63;26.40;;;;;;;1.29;100.00;96682.56;5083175;28;20410;-67
2021/11/13 01:55:12;;;;;;;137.40;27.93;;;;;;;1.40;100.00;96686.53;5093355;28;20449;-67
2021/11/13 01:57:45;;;;;;;163.55;27.70;;;;;;;1.56;100.00;96697.53;5092150;28;20471;-68
2021/11/13 02:00:16;;;;;;;90.50;26.25;;;;;;;1.63;100.00;96682.97;5111229;28;20416;-67
2021/11/13 02:02:41;;;;;;;140.65;27.42;;;;;;;1.53;100.00;96677.25;5094107;28;20404;-67
2021/11/13 02:05:07;;;;;;;136.67;25.20;;;;;;;1.53;100.00;96672.06;5093961;28;20813;-67
2021/11/13 02:07:32;;;;;;;192.17;24.57;;;;;;;1.68;100.00;96680.66;5092180;28;20386;-67
2021/11/13 02:09:58;;;;;;;157.77;26.83;;;;;;;1.70;100.00;96672.75;5110274;28;20799;-67
2021/11/13 02:12:23;;;;;;;122.20;26.00;;;;;;;1.55;100.00;96672.72;5105856;28;20900;-67
2021/11/13 02:14:49;;;;;;;142.60;24.92;;;;;;;1.74;100.00;96673.19;5091905;28;20386;-67
2021/11/13 02:17:14;;;;;;;147.97;26.17;;;;;;;1.75;100.00;96662.69;5109751;28;20791;-67
2021/11/13 02:19:39;;;;;;;45.87;22.67;;;;;;;1.55;100.00;96664.97;5095620;28;20378;-67
2021/11/13 02:22:05;;;;;;;97.05;23.00;;;;;;;1.72;100.00;96667.41;5094205;28;20386;-67
2021/11/13 02:24:31;;;;;;;60.57;22.50;;;;;;;1.95;100.00;96656.03;5093550;28;20408;-69
2021/11/13 02:26:56;;;;;;;54.40;21.70;;;;;;;2.08;100.00;96658.84;5112040;28;20447;-67
2021/11/13 02:29:22;;;;;;;47.53;20.30;;;;;;;2.31;100.00;96655.38;5109283;28;20403;-67
2021/11/13 02:31:49;;;;;;;123.50;20.50;;;;;;;2.36;100.00;96664.22;5092171;28;20394;-68
2021/11/13 02:34:15;;;;;;;96.45;20.17;;;;;;;2.18;100.00;96657.78;5091502;28;20839;-67
2021/11/13 02:36:42;;;;;;;59.47;22.52;;;;;;;2.08;100.00;96671.75;5092881;28;20878;-67
2021/11/13 02:39:10;;;;;;;77.77;20.57;;;;;;;1.96;100.00;96675.75;5104224;28;20481;-67
2021/11/13 02:41:36;;;;;;;79.15;18.75;;;;;;;2.03;100.00;96676.66;5107300;28;20393;-68
2021/11/13 02:44:04;;;;;;;59.17;19.55;;;;;;;1.89;100.00;96685.19;5079351;28;20386;-67
2021/11/13 02:46:29;;;;;;;147.80;23.13;;;;;;;1.83;100.00;96683.31;5091475;28;20389;-68
2021/11/13 02:48:56;;;;;;;128.40;22.57;;;;;;;1.64;100.00;96670.84;5091822;28;20382;-67
2021/11/13 02:51:21;;;;;;;121.22;20.67;;;;;;;1.57;100.00;96691.41;5092907;28;20386;-67
2021/11/13 02:53:52;;;;;;;90.40;21.37;;;;;;;1.55;100.00;96688.22;5111401;28;20395;-67
2021/11/13 02:56:18;;;;;;;117.55;21.10;;;;;;;1.66;100.00;96692.16;5111414;28;20408;-67
2021/11/13 02:58:43;;;;;;;71.28;20.50;;;;;;;1.66;100.00;96692.16;5109357;28;20449;-68
2021/11/13 03:01:15;;;;;;;71.10;19.63;;;;;;;1.68;100.00;96687.63;5099248;28;20389;-67
2021/11/13 03:03:40;;;;;;;77.32;20.92;;;;;;;1.60;100.00;96685.91;5081691;28;20407;-67
2021/11/13 03:06:11;;;;;;;86.35;20.42;;;;;;;1.63;100.00;96695.06;5091250;28;20492;-67
2021/11/13 03:08:38;;;;;;;88.68;21.63;;;;;;;2.05;100.00;96697.16;5089828;28;20394;-67
2021/11/13 03:11:09;;;;;;;120.95;22.40;;;;;;;2.20;100.00;96697.19;5101985;28;20405;-67
2021/11/13 03:13:37;;;;;;;103.47;18.02;;;;;;;1.64;100.00;96686.34;5091068;28;20446;-67
2021/11/13 03:16:05;;;;;;;71.22;19.50;;;;;;;1.96;100.00;96688.66;5091476;28;20463;-67
2021/11/13 03:18:31;;;;;;;68.73;21.57;;;;;;;2.07;100.00;96698.59;5091297;28;20480;-68
2021/11/13 03:20:57;;;;;;;48.58;20.17;;;;;;;2.09;100.00;96691.47;5094168;28;20930;-67
2021/11/13 03:23:22;;;;;;;50.35;20.73;;;;;;;2.14;100.00;96688.34;5095057;28;20920;-67
2021/11/13 03:26:05;;;;;;;54.13;19.40;;;;;;;2.40;100.00;96682.75;5095233;28;20431;-67
2021/11/13 03:28:35;;;;;;;41.17;19.23;;;;;;;2.31;100.00;96686.41;5095400;28;20390;-68
2021/11/13 03:31:02;;;;;;;45.35;18.60;;;;;;;2.23;100.00;96687.28;5101755;28;20391;-67
2021/11/13 03:33:37;;;;;;;36.10;18.87;;;;;;;2.18;100.00;96684.44;5114448;28;20435;-67
2021/11/13 03:36:04;;;;;;;37.83;18.85;;;;;;;2.32;100.00;96675.91;5107882;28;20418;-67
2021/11/13 03:38:29;;;;;;;37.23;18.50;;;;;;;2.15;100.00;96674.47;5115203;28;20921;-67
2021/11/13 03:40:55;;;;;;;42.20;18.33;;;;;;;2.20;100.00;96672.13;5114955;28;20471;-67
2021/11/13 03:43:21;;;;;;;43.93;19.03;;;;;;;2.29;100.00;96671.06;5115061;28;20457;-67
2021/11/13 03:45:48;;;;;;;33.70;18.30;;;;;;;2.08;100.00;96669.19;5112083;28;20384;-67
2021/11/13 03:48:14;;;;;;;29.23;18.15;;;;;;;2.13;100.00;96680.75;5114434;28;20775;-67
2021/11/13 03:50:39;;;;;;;33.63;19.10;;;;;;;2.19;100.00;96680.06;5113502;28;20399;-67
2021/11/13 03:53:06;;;;;;;30.98;18.42;;;;;;;2.16;100.00;96681.25;5114838;28;20485;-67
2021/11/13 03:55:33;;;;;;;31.70;18.23;;;;;;;2.07;100.00;96674.50;5109911;28;20463;-67
2021/11/13 03:57:59;;;;;;;36.13;17.92;;;;;;;1.99;100.00;96669.44;5094540;28;20390;-68
2021/11/13 04:00:26;;;;;;;25.42;18.08;;;;;;;2.06;100.00;96670.34;5096837;28;20406;-67
2021/11/13 04:02:52;;;;;;;26.17;17.63;;;;;;;2.04;100.00;96670.53;5096416;28;20487;-67
2021/11/13 04:05:19;;;;;;;31.45;18.48;;;;;;;2.18;100.00;96673.28;5111039;28;20469;-68
2021/11/13 04:07:45;;;;;;;34.17;19.15;;;;;;;2.15;100.00;96671.88;5094242;28;20393;-67
2021/11/13 04:10:13;;;;;;;32.25;20.23;;;;;;;2.15;100.00;96669.28;5094004;28;20378;-67
2021/11/13 04:12:39;;;;;;;25.45;18.75;;;;;;;2.17;100.00;96674.28;5080142;28;20386;-67
2021/11/13 04:15:06;;;;;;;41.50;19.98;;;;;;;2.30;100.00;96670.09;5095217;28;20406;-67
2021/11/13 04:17:33;;;;;;;28.17;19.95;;;;;;;2.33;100.00;96666.34;5094216;28;20384;-67
2021/11/13 04:19:59;;;;;;;25.47;18.87;;;;;;;2.24;100.00;96670.78;5094005;28;20548;-69
2021/11/13 04:22:25;;;;;;;29.75;19.33;;;;;;;2.48;100.00;96667.97;5096956;28;20384;-68
2021/11/13 04:24:50;;;;;;;27.05;18.58;;;;;;;2.38;100.00;96661.47;5111469;28;20381;-68
2021/11/13 04:27:16;;;;;;;25.42;18.35;;;;;;;2.28;100.00;96666.09;5093700;28;20882;-67
2021/11/13 04:29:42;;;;;;;23.17;17.42;;;;;;;2.31;100.00;96652.78;5092534;28;20443;-67
2021/11/13 04:32:09;;;;;;;24.23;17.13;;;;;;;2.41;100.00;96648.16;5094167;28;20409;-68
2021/11/13 04:37:27;;;;;;;24.88;18.63;;;;;;;2.34;100.00;96639.53;5060830;28;20400;-67
2021/11/13 04:39:53;;;;;;;24.33;17.75;;;;;;;2.21;100.00;96649.69;5092368;28;20408;-67
2021/11/13 04:42:19;;;;;;;24.57;18.57;;;;;;;2.43;100.00;96633.28;5109079;28;20426;-67
2021/11/13 04:44:47;;;;;;;24.30;17.45;;;;;;;2.45;100.00;96629.50;5113467;28;20380;-67
2021/11/13 04:47:13;;;;;;;23.40;17.33;;;;;;;2.39;100.00;96629.44;5095329;28;20798;-68
2021/11/13 04:49:38;;;;;;;22.50;16.60;;;;;;;2.35;100.00;96628.97;5109173;28;20880;-67
2021/11/13 04:52:05;;;;;;;22.10;16.80;;;;;;;2.20;100.00;96624.78;5106934;28;20429;-67
2021/11/13 04:54:31;;;;;;;19.98;15.55;;;;;;;2.45;100.00;96629.50;5104156;28;20417;-67
2021/11/13 04:56:57;;;;;;;20.10;16.10;;;;;;;2.40;100.00;96637.00;5093144;28;20449;-67
2021/11/13 04:59:22;;;;;;;19.33;15.30;;;;;;;2.42;100.00;96635.06;5093371;28;20382;-69
2021/11/13 05:01:48;;;;;;;18.50;15.40;;;;;;;2.46;100.00;96638.88;5103386;28;20404;-68
2021/11/13 05:04:13;;;;;;;18.85;15.27;;;;;;;2.53;100.00;96633.78;5112882;28;20418;-67
2021/11/13 05:06:39;;;;;;;19.27;15.70;;;;;;;2.30;100.00;96633.88;5113839;28;20834;-67
2021/11/13 05:09:04;;;;;;;19.63;16.47;;;;;;;2.30;100.00;96640.84;5112996;28;20392;-67
2021/11/13 05:11:30;;;;;;;20.37;16.30;;;;;;;2.25;100.00;96641.38;5104186;28;20472;-67
2021/11/13 05:13:55;;;;;;;19.17;15.70;;;;;;;2.37;100.00;96647.72;5096786;28;20475;-69
2021/11/13 05:16:20;;;;;;;18.00;15.43;;;;;;;2.21;100.00;96645.31;5105904;28;20410;-67
2021/11/13 05:18:46;;;;;;;18.70;15.10;;;;;;;2.27;100.00;96636.84;5092868;28;20439;-67
2021/11/13 05:21:12;;;;;;;18.10;15.20;;;;;;;2.39;100.00;96639.78;5094463;28;20868;-67
2021/11/13 05:23:39;;;;;;;18.48;15.05;;;;;;;2.32;100.00;96646.66;5112352;28;20895;-67
2021/11/13 05:26:05;;;;;;;17.50;14.77;;;;;;;2.36;100.00;96643.53;5104055;28;20393;-67
2021/11/13 05:28:30;;;;;;;17.77;14.57;;;;;;;2.66;100.00;96654.66;5112585;28;20421;-68
2021/11/13 05:30:56;;;;;;;17.30;15.43;;;;;;;2.63;100.00;96652.41;5111858;28;20406;-67
2021/11/13 05:33:23;;;;;;;16.38;14.60;;;;;;;2.43;100.00;96657.34;5111565;28;20726;-67
2021/11/13 05:35:49;;;;;;;18.88;15.38;;;;;;;2.59;100.00;96653.78;5112223;28;20884;-68
2021/11/13 05:38:14;;;;;;;17.00;14.67;;;;;;;2.62;100.00;96648.22;5093644;28;20394;-67
2021/11/13 05:40:39;;;;;;;19.48;15.60;;;;;;;2.50;100.00;96663.44;5098993;28;20422;-67
2021/11/13 05:43:05;;;;;;;17.60;14.87;;;;;;;2.32;100.00;96652.63;5112043;28;20441;-67
2021/11/13 05:45:30;;;;;;;16.60;14.63;;;;;;;2.26;100.00;96655.91;5111324;28;20445;-67
2021/11/13 05:47:57;;;;;;;16.58;14.50;;;;;;;2.30;100.00;96646.81;5095975;28;20477;-67
2021/11/13 05:50:23;;;;;;;16.00;14.25;;;;;;;2.38;100.00;96648.53;5092099;28;20394;-67
2021/11/13 05:52:50;;;;;;;16.07;14.10;;;;;;;2.60;100.00;96649.41;5092234;28;20393;-67
2021/11/13 05:55:17;;;;;;;16.80;13.60;;;;;;;2.58;100.00;96659.91;5094632;28;20496;-67
2021/11/13 05:57:43;;;;;;;15.20;13.48;;;;;;;2.54;100.00;96656.09;5097852;28;20951;-67
2021/11/13 06:00:12;;;;;;;16.67;13.98;;;;;;;2.64;100.00;96650.63;5095542;28;20380;-67
2021/11/13 06:02:38;;;;;;;16.23;13.48;;;;;;;2.85;100.00;96641.16;5108849;28;20824;-67
2021/11/13 06:05:04;;;;;;;16.38;13.80;;;;;;;2.78;100.00;96639.47;5090104;28;20778;-68
2021/11/13 06:07:30;;;;;;;15.90;13.60;;;;;;;2.69;100.00;96640.56;5108401;28;20388;-67
2021/11/13 06:09:55;;;;;;;16.53;14.70;;;;;;;2.89;100.00;96637.22;5112158;28;20446;-67
2021/11/13 06:12:20;;;;;;;16.77;14.43;;;;;;;3.09;100.00;96640.03;5104794;28;20402;-67
2021/11/13 06:14:46;;;;;;;17.67;14.63;;;;;;;3.18;100.00;96645.88;5091751;28;20389;-67
2021/11/13 06:17:11;;;;;;;21.70;14.80;;;;;;;3.21;100.00;96635.97;5093217;28;20449;-67
2021/11/13 06:19:36;;;;;;;18.17;13.67;;;;;;;3.45;100.00;96634.81;5092017;28;20386;-68
2021/11/13 06:22:03;;;;;;;18.15;14.07;;;;;;;3.75;99.98;96632.88;5093015;28;20414;-68
2021/11/13 06:24:28;;;;;;;16.60;13.60;;;;;;;3.90;99.13;96635.38;5090520;28;20470;-68
2021/11/13 06:26:55;;;;;;;18.10;14.20;;;;;;;3.88;99.32;96639.94;5091552;28;20878;-67
2021/11/13 06:29:21;;;;;;;17.38;13.43;;;;;;;3.85;99.72;96633.34;5099425;28;20384;-67
2021/11/13 06:31:46;;;;;;;17.75;14.88;;;;;;;3.75;99.17;96631.06;5111184;28;20395;-67
2021/11/13 06:34:12;;;;;;;16.97;15.00;;;;;;;3.60;99.22;96632.94;5110959;28;20398;-67
2021/11/13 06:36:37;;;;;;;16.07;14.37;;;;;;;3.39;97.99;96640.72;5111588;28;20400;-67
2021/11/13 06:39:03;;;;;;;18.00;14.73;;;;;;;3.34;97.15;96638.69;5106840;28;20422;-67
2021/11/13 06:41:30;;;;;;;19.47;15.63;;;;;;;3.07;98.53;96639.41;5091655;28;20394;-67
2021/11/13 06:43:56;;;;;;;18.58;15.38;;;;;;;2.90;98.77;96638.00;5090431;28;20736;-67
2021/11/13 06:46:22;;;;;;;17.08;15.23;;;;;;;2.89;99.87;96650.19;5091793;28;20382;-67
2021/11/13 06:48:47;;;;;;;17.67;15.32;;;;;;;2.89;99.42;96633.84;5094445;28;20385;-67
2021/11/13 06:51:13;;;;;;;17.27;14.23;;;;;;;2.77;99.81;96643.06;5111526;28;21059;-67
2021/11/13 06:53:39;;;;;;;17.63;14.60;;;;;;;2.70;100.00;96648.13;5111117;28;20689;-67
2021/11/13 06:56:05;;;;;;;16.30;14.20;;;;;;;2.73;100.00;96642.59;5099059;28;20412;-67
2021/11/13 06:58:30;;;;;;;16.83;14.50;;;;;;;2.77;100.00;96650.81;5112010;28;20407;-68
2021/11/13 07:00:56;;;;;;;18.13;14.57;;;;;;;2.81;100.00;96646.88;5089670;28;20406;-67
2021/11/13 07:03:21;;;;;;;17.77;15.00;;;;;;;2.81;100.00;96652.84;5115641;28;20411;-67
2021/11/13 07:05:47;;;;;;;17.30;14.70;;;;;;;2.84;100.00;96647.31;5115518;28;20406;-67
2021/11/13 07:08:13;;;;;;;18.10;14.90;;;;;;;2.88;99.84;96647.75;5101719;28;20859;-68
2021/11/13 07:10:39;;;;;;;17.70;14.25;;;;;;;2.78;100.00;96649.84;5094271;28;20421;-69
2021/11/13 07:13:05;;;;;;;15.80;13.77;;;;;;;2.85;100.00;96642.94;5115037;28;20391;-68
2021/11/13 07:15:33;;;;;;;16.00;13.80;;;;;;;2.94;99.82;96641.84;5113697;28;20408;-66
2021/11/13 07:18:01;;;;;;;16.90;13.90;;;;;;;3.05;99.51;96645.75;5104369;28;20421;-67
2021/11/13 07:20:27;;;;;;;17.20;13.77;;;;;;;3.05;98.91;96648.34;5095506;28;20440;-67
2021/11/13 07:22:53;;;;;;;15.17;13.37;;;;;;;3.23;97.39;96643.56;5111293;28;20920;-68
2021/11/13 07:25:18;;;;;;;16.27;13.43;;;;;;;3.34;96.55;96643.09;5078312;28;20393;-67
2021/11/13 07:27:46;;;;;;;15.40;13.35;;;;;;;3.23;97.95;96640.97;5103499;28;20384;-67
2021/11/13 07:30:18;;;;;;;15.60;13.00;;;;;;;3.15;97.85;96639.28;5096994;28;20404;-66
2021/11/13 07:32:44;;;;;;;15.18;13.52;;;;;;;3.19;98.22;96637.94;5097473;28;20464;-68
2021/11/13 07:35:10;;;;;;;14.63;12.73;;;;;;;3.18;97.59;96633.75;5095766;28;20485;-67
2021/11/13 07:37:35;;;;;;;15.17;13.03;;;;;;;3.31;97.60;96643.44;5106623;28;20380;-67
2021/11/13 07:40:00;;;;;;;15.80;12.73;;;;;;;3.53;96.31;96642.44;5097069;28;20382;-67
2021/11/13 07:42:26;;;;;;;16.23;13.23;;;;;;;3.61;96.04;96625.97;5107659;28;20787;-68
2021/11/13 07:44:51;;;;;;;14.75;12.95;;;;;;;3.70;96.10;96636.03;5114028;28;20418;-67
2021/11/13 07:47:17;;;;;;;15.60;13.25;;;;;;;3.48;96.32;96642.19;5112523;28;20404;-67
2021/11/13 07:49:43;;;;;;;15.20;13.17;;;;;;;3.48;96.09;96641.41;5094686;28;20832;-67
2021/11/13 07:52:08;;;;;;;15.33;13.00;;;;;;;3.46;96.29;96643.38;5095796;28;20804;-67
2021/11/13 07:54:34;;;;;;;15.67;13.23;;;;;;;3.54;96.40;96633.69;5094327;28;20948;-68
2021/11/13 07:56:59;;;;;;;16.23;13.13;;;;;;;3.65;95.75;96635.78;5094133;28;20401;-67
2021/11/13 07:59:25;;;;;;;15.55;13.10;;;;;;;3.70;94.64;96638.59;5094218;28;20386;-68
2021/11/13 08:01:50;;;;;;;15.33;13.00;;;;;;;3.84;95.04;96639.53;5095409;28;20390;-68
2021/11/13 08:04:17;;;;;;;15.37;12.23;;;;;;;3.99;94.28;96639.44;5095153;28;20862;-68
2021/11/13 08:06:42;;;;;;;14.70;12.43;;;;;;;4.08;93.08;96644.28;5092767;28;20465;-68
2021/11/13 08:09:08;;;;;;;18.65;12.77;;;;;;;4.11;93.89;96645.72;5093375;28;20426;-70
2021/11/13 08:11:34;;;;;;;25.98;19.27;;;;;;;6.28;100.00;96646.31;5102487;28;20440;-70
2021/11/13 08:13:59;;;;;;;13.80;11.33;;;;;;;6.20;88.90;96649.09;5093913;28;20400;-71
2021/11/13 08:16:25;;;;;;;13.33;11.50;;;;;;;5.75;86.17;96653.28;5095827;28;20405;-69
2021/11/13 08:18:51;;;;;;;12.43;10.60;;;;;;;5.77;85.45;96646.09;5112199;28;20886;-70
2021/11/13 08:21:16;;;;;;;11.48;10.27;;;;;;;5.59;86.00;96645.88;5092288;28;20479;-70
2021/11/13 08:23:42;;;;;;;12.43;10.67;;;;;;;5.69;85.60;96643.69;5101595;28;20440;-69
2021/11/13 08:26:08;;;;;;;12.70;11.10;;;;;;;5.77;85.78;96641.69;5092405;28;20390;-71
2021/11/13 08:28:33;;;;;;;13.68;11.45;;;;;;;5.60;86.02;96640.50;5093933;28;20488;-71
2021/11/13 08:30:59;;;;;;;13.63;11.10;;;;;;;5.71;86.13;96639.91;5092200;28;20401;-72
2021/11/13 08:33:28;;;;;;;12.43;10.82;;;;;;;5.88;85.42;96640.34;5091888;28;20477;-69
2021/11/13 08:35:53;;;;;;;11.30;9.98;;;;;;;6.06;84.41;96637.13;5098750;28;20496;-69
2021/11/13 08:38:21;;;;;;;12.10;9.45;;;;;;;6.25;83.58;96651.91;5113205;28;20544;-71
2021/11/13 08:40:49;;;;;;;10.88;9.30;;;;;;;6.29;82.93;96652.31;5113533;28;20438;-69
2021/11/13 08:43:15;;;;;;;10.25;9.15;;;;;;;6.46;82.41;96648.28;5094827;28;20399;-69
2021/11/13 08:45:41;;;;;;;10.97;9.07;;;;;;;6.42;83.34;96655.69;5110531;28;20538;-68
2021/11/13 08:48:06;;;;;;;10.97;9.47;;;;;;;6.75;82.39;96647.78;5082332;28;20421;-69
2021/11/13 08:50:32;;;;;;;10.30;8.87;;;;;;;6.64;81.88;96661.44;5091845;28;20406;-71
2021/11/13 08:53:00;;;;;;;10.65;8.05;;;;;;;6.59;81.92;96658.66;5095108;28;20395;-69
2021/11/13 08:55:28;;;;;;;8.52;7.57;;;;;;;6.70;81.91;96655.41;5113138;28;20422;-69
2021/11/13 08:57:54;;;;;;;8.15;7.35;;;;;;;6.68;82.17;96657.44;5094104;28;20388;-69
2021/11/13 09:00:54;;;;;;;8.07;7.28;;;;;;;6.71;81.03;96664.81;5092515;28;20475;-67
2021/11/13 09:03:33;;;;;;;9.73;7.88;;;;;;;6.74;81.23;96661.81;5105678;28;20404;-67
2021/11/13 09:06:03;;;;;;;8.15;7.18;;;;;;;6.83;80.34;96672.81;5093932;28;20413;-69
2021/11/13 09:08:29;;;;;;;8.32;7.18;;;;;;;6.74;80.63;96668.84;5093115;28;20882;-69
2021/11/13 09:10:55;;;;;;;9.17;8.20;;;;;;;6.47;82.28;96661.06;5093097;28;20398;-68
2021/11/13 09:13:24;;;;;;;9.45;7.70;;;;;;;6.77;80.96;96655.41;5092955;28;20925;-71
2021/11/13 09:15:50;;;;;;;10.60;7.88;;;;;;;6.64;81.04;96656.22;5094493;28;20484;-68
2021/11/13 09:18:15;;;;;;;8.50;7.50;;;;;;;6.52;82.09;96648.25;5103536;28;20939;-69
2021/11/13 09:20:41;;;;;;;8.53;7.63;;;;;;;6.52;82.57;96645.63;5094719;28;20873;-69
2021/11/13 09:23:09;;;;;;;8.68;7.78;;;;;;;6.69;82.68;96643.38;5112828;28;20441;-70
2021/11/13 09:25:35;;;;;;;8.60;7.65;;;;;;;7.16;80.73;96637.00;5097448;28;20396;-68
2021/11/13 09:28:02;;;;;;;10.00;7.72;;;;;;;7.23;80.38;96637.75;5099774;28;20443;-70
2021/11/13 09:30:30;;;;;;;9.93;7.47;;;;;;;7.12;80.90;96648.84;5091173;28;20398;-71
2021/11/13 09:32:57;;;;;;;8.27;7.40;;;;;;;7.39;79.97;96637.28;5090396;28;20460;-71
2021/11/13 09:35:23;;;;;;;9.73;7.38;;;;;;;7.40;80.05;96638.88;5101908;28;20431;-70
2021/11/13 09:37:49;;;;;;;8.33;7.03;;;;;;;7.59;79.33;96631.91;5096623;28;20481;-70
2021/11/13 09:40:19;;;;;;;8.00;7.03;;;;;;;7.61;79.14;96637.72;5092121;28;20485;-70
2021/11/13 09:42:46;;;;;;;9.25;7.30;;;;;;;7.80;78.47;96636.00;5092653;28;20922;-70
2021/11/13 09:45:12;;;;;;;9.35;7.45;;;;;;;7.97;77.74;96641.47;5094648;28;20913;-70
2021/11/13 09:47:38;;;;;;;8.43;7.20;;;;;;;8.08;76.81;96636.34;5087801;28;20394;-69
2021/11/13 09:50:05;;;;;;;8.98;7.30;;;;;;;8.28;76.17;96638.78;5092150;28;20402;-68
2021/11/13 09:52:31;;;;;;;7.83;6.77;;;;;;;8.35;76.31;96629.13;5108786;28;20484;-70
2021/11/13 09:54:56;;;;;;;8.47;7.27;;;;;;;8.75;74.72;96629.47;5112029;28;20455;-67
2021/11/13 09:57:23;;;;;;;7.45;6.75;;;;;;;8.95;74.26;96629.25;5111969;28;20503;-68
2021/11/13 09:59:48;;;;;;;7.63;6.80;;;;;;;9.16;73.78;96634.00;5112274;28;20456;-67
2021/11/13 10:02:14;;;;;;;8.57;7.27;;;;;;;9.22;73.19;96627.91;5095790;28;20390;-68
2021/11/13 10:04:40;;;;;;;7.88;6.57;;;;;;;9.58;72.00;96622.53;5094881;28;20830;-69
2021/11/13 10:07:05;;;;;;;7.27;6.40;;;;;;;9.96;70.35;96629.22;5112058;28;20396;-66
2021/11/13 10:09:31;;;;;;;6.70;5.80;;;;;;;9.66;70.59;96618.00;5111594;28;20391;-67
2021/11/13 10:11:56;;;;;;;6.20;5.40;;;;;;;9.44;71.46;96628.19;5099410;28;20287;-69
2021/11/13 10:14:40;;;;;;;8.33;5.73;;;;;;;9.28;74.29;96621.78;5103328;28;20306;-72
2021/11/13 10:17:25;;;;;;;7.93;5.73;;;;;;;9.14;75.48;96620.34;5096613;28;20260;-71
2021/11/13 10:19:52;;;;;;;7.27;5.87;;;;;;;8.72;78.67;96614.25;5093231;28;20612;-69
2021/11/13 10:22:18;;;;;;;7.87;6.00;;;;;;;8.55;80.85;96608.00;5101907;28;20219;-68
2021/11/13 10:24:47;;;;;;;10.63;6.63;;;;;;;8.56;81.02;96607.78;5097731;28;20263;-68
2021/11/13 10:27:13;;;;;;;8.63;6.30;;;;;;;8.56;82.19;96612.22;5113211;28;20195;-68
2021/11/13 10:29:39;;;;;;;9.83;7.10;;;;;;;8.70;81.98;96611.84;5095807;28;20192;-68
2021/11/13 10:32:08;;;;;;;8.57;6.60;;;;;;;8.42;81.55;96611.53;5092309;28;20180;-68
2021/11/13 10:34:44;;;;;;;10.10;7.10;;;;;;;8.31;82.57;96605.22;5093012;28;20196;-68
2021/11/13 10:37:14;;;;;;;11.90;7.23;;;;;;;8.28;82.73;96610.88;5093786;28;20204;-68
2021/11/13 10:39:43;;;;;;;7.30;5.97;;;;;;;8.49;81.68;96601.03;5092799;28;20176;-68
2021/11/13 10:42:11;;;;;;;9.67;6.20;;;;;;;8.58;80.97;96600.53;5092876;28;20184;-68
2021/11/13 10:44:44;;;;;;;8.53;6.67;;;;;;;8.59;80.45;96596.91;5097193;28;20176;-69
2021/11/13 10:47:22;;;;;;;8.90;6.30;;;;;;;8.55;81.26;96600.16;5098957;28;20181;-68
2021/11/13 10:49:51;;;;;;;12.73;6.60;;;;;;;8.45;82.48;96594.66;5112537;28;20532;-66
2021/11/13 10:52:18;;;;;;;8.80;6.60;;;;;;;8.47;82.87;96582.19;5102519;28;20672;-69
2021/11/13 10:54:51;;;;;;;7.30;6.20;;;;;;;8.70;81.85;96590.13;5097362;28;20666;-68
2021/11/13 10:57:28;;;;;;;9.70;6.93;;;;;;;8.69;82.74;96586.72;5113096;28;20204;-68
2021/11/13 10:59:55;;;;;;;11.57;7.37;;;;;;;8.85;82.79;96580.13;5112815;28;20179;-68
2021/11/13 11:02:22;;;;;;;11.60;7.63;;;;;;;8.84;82.43;96578.53;5097927;28;20262;-68
2021/11/13 11:04:49;;;;;;;10.20;7.53;;;;;;;9.07;81.95;96572.59;5105794;28;20251;-68
2021/11/13 11:07:20;;;;;;;11.00;7.33;;;;;;;9.07;81.99;96580.44;5098685;28;20606;-67
2021/11/13 11:09:56;;;;;;;11.43;8.00;;;;;;;9.11;82.02;96585.00;5112961;28;20172;-67
2021/11/13 11:12:26;;;;;;;8.77;7.23;;;;;;;9.03;82.73;96581.88;5112782;28;20194;-67
2021/11/13 11:14:53;;;;;;;8.37;6.73;;;;;;;9.24;80.81;96584.03;5107174;28;20180;-68
2021/11/13 11:17:24;;;;;;;7.97;6.07;;;;;;;9.19;80.72;96584.66;5097594;28;20196;-67
2021/11/13 11:19:51;;;;;;;9.90;6.17;;;;;;;9.34;80.06;96576.44;5088149;28;20707;-66
2021/11/13 11:22:23;;;;;;;7.67;6.47;;;;;;;9.40;79.53;96574.75;5092177;28;20531;-67
2021/11/13 11:25:11;;;;;;;10.90;6.90;;;;;;;9.38;79.75;96576.78;5081535;28;20278;-66